Holcombville, New York
Current Conditions -  °F | °C
As of 4:53 AM on Sunday 26 Oct 2014 (Local Time) from KGFL Reporting Station
Overcast Overcast  
Wind Chill: 50°   Ceiling: 7500
Heat Index: 50°   Visibility: 10mi
Dew Point: 43°   Wind: 9mph
Humidity: 77%   Direction: 230°SW
Pressure: 29.47"   Gusts: NA
Location:  43.7289°N, 73.9027°W
Report Text: KGFL 260853Z AUTO 23008KT 10SM OVC075 10/06 A2947 RMK AO2 SLP982 T01000061 53000
Loading
Personal Weather Stations






























Interactive Weather Map
Tropical Storm Tracking
New forecast layout! Learn more

10-Day Weather Forecast

Advertisements
Track Severe Weather on mobile